Terminal Aerodrome Forecast
Issued by NWS St Louis, MO

Home | Current Version | Previous Version | Text Only | Print | Product List | Glossary On
Versions: 1 2 3 4 5 6 7 8 9 10 11 12 13 14 15 16 17 18 19 20
764
FTUS43 KLSX 031725
TAFSTL
TAF
KSTL 031725Z 0318/0424 32009KT P6SM VCSH BKN045
     FM032100 30007KT P6SM SCT050
     FM040100 24006KT P6SM FEW250
     FM040800 25013KT P6SM VCSH BKN060
     FM041100 29013G20KT P6SM SCT080
     FM041400 33015G23KT P6SM FEW060=

USA.gov is the U.S. government's official web portal to all federal, state and local government web resources and services.